Virtual Norwegian is not affiliated with Norwegian Air Shuttle in any way.
If you are looking for the real "Norwegian", or you wish to book Norwegian flights, please visit Norwegian.com


We use cookies to ensure you get the best experience on our website.   ACCEPT

LEMG - AGP - Malaga (Malaga)

General Info Alternate Airport
ICAO: LEMG Elevation: 52 ft ICAO: LEGR
IATA: AGP Country: Spain IATA: GRX
City: Malaga Charts: Log in to view charts City: Granada
Name: Malaga Hub: Yes Name Granada
General Info
ICAO: LEMG
IATA: AGP
City: Malaga
Name: Malaga
Elevation: 52 ft
Country: Spain
Charts: Log in to view charts
Hub: Yes
 
Alternate Airport
ICAO: LEGR
IATA: GRX
City: Granada
Name: Granada

Weather
231500Z 11008KT 070V150 9999 FEW030 22/17 Q1023 NOSIG
Weather
231500Z 11008KT 070V150 9999 FEW030 22/17 Q1023 NOSIG

Runway Info
12
Length ILS/LOC Course
2750 m 110.55 119
13
Length ILS/LOC Course
3200 m 109.50 133
30
Length ILS/LOC Heading
2750 m N/A 297
31
Length ILS/LOC Course
3200 m 109.90 313

NOTAMs
NOTAMs currently unavailable.
NOTAMs
NOTAMs currently unavailable

Route map
Airport
Airport (hub)